RRR130 EGFF-EGFF
Flight info
| Callsign | RRR130 |
|---|---|
| Flight time | 0h 3m |
| Altitude | 28000 |
| Route | EXMOR DCT LND DCT LANLO DCT LULOX DCT BOGMI DCT PAVLO DCT GISOK DCT FIFAH |
| Aircraft | A400/H-SDE3FGHIRWY/L4T |
Departure
| Time | 2026-04-29 20:39 |
|---|---|
| Airport | Cardiff International Airport (EGFF) |
Arrival
| Time | 2026-04-29 20:42 |
|---|---|
| Airport | Cardiff International Airport (EGFF) |
| Time | Latitude | Longitude | Altitude | Speed | Heading |
|---|---|---|---|---|---|
| 2026-04-29 20:29 | 51.39431 | -3.34558 | 236 ft | 0 kts | 291° |
| 2026-04-29 20:34 | 51.39469 | -3.34493 | 237 ft | 0 kts | 38° |
| 2026-04-29 20:35 | 51.39470 | -3.34492 | 236 ft | 2 kts | 38° |
| 2026-04-29 20:36 | 51.39504 | -3.34447 | 232 ft | 13 kts | 40° |
| 2026-04-29 20:36 | 51.39548 | -3.34316 | 228 ft | 12 kts | 70° |
| 2026-04-29 20:36 | 51.39566 | -3.34218 | 229 ft | 9 kts | 74° |
| 2026-04-29 20:36 | 51.39581 | -3.34105 | 228 ft | 10 kts | 101° |
| 2026-04-29 20:37 | 51.39551 | -3.33978 | 228 ft | 16 kts | 116° |
| 2026-04-29 20:37 | 51.39498 | -3.33799 | 231 ft | 19 kts | 114° |
| 2026-04-29 20:37 | 51.39443 | -3.33586 | 233 ft | 22 kts | 115° |
| 2026-04-29 20:37 | 51.39362 | -3.33395 | 233 ft | 20 kts | 117° |
| 2026-04-29 20:38 | 51.39298 | -3.33184 | 233 ft | 23 kts | 117° |
| 2026-04-29 20:38 | 51.39236 | -3.32938 | 228 ft | 26 kts | 111° |
| 2026-04-29 20:38 | 51.39201 | -3.32905 | 227 ft | 7 kts | 268° |
| 2026-04-29 20:38 | 51.39251 | -3.33040 | 230 ft | 22 kts | 294° |
| 2026-04-29 20:39 | 51.39391 | -3.33466 | 233 ft | 82 kts | 298° |
| 2026-04-29 20:39 | 51.39776 | -3.34657 | 233 ft | 154 kts | 298° |
| 2026-04-29 20:39 | 51.40307 | -3.36369 | 543 ft | 182 kts | 303° |
| 2026-04-29 20:39 | 51.40941 | -3.38214 | 1119 ft | 197 kts | 305° |
| 2026-04-29 20:40 | 51.41561 | -3.40134 | 1783 ft | 193 kts | 305° |
| 2026-04-29 20:40 | 51.42169 | -3.42070 | 2465 ft | 196 kts | 303° |
| 2026-04-29 20:40 | 51.42795 | -3.43970 | 3388 ft | 191 kts | 302° |
| 2026-04-29 20:40 | 51.43440 | -3.45793 | 4304 ft | 186 kts | 305° |
| 2026-04-29 20:41 | 51.44103 | -3.47498 | 4789 ft | 187 kts | 309° |
| 2026-04-29 20:41 | 51.44971 | -3.49039 | 3836 ft | 190 kts | 327° |
| 2026-04-29 20:41 | 51.45811 | -3.50209 | 1557 ft | 200 kts | 348° |
| 2026-04-29 20:41 | 51.46881 | -3.50859 | 2689 ft | 147 kts | 5° |
| 2026-04-29 20:42 | 51.39431 | -3.34558 | 2262 ft | 0 kts | 291° |
| 2026-04-29 20:43 | 51.39519 | -3.34432 | 230 ft | 0 kts | 73° |
| 2026-04-29 20:43 | 51.39519 | -3.34433 | 229 ft | 0 kts | 76° |
| 2026-04-29 20:44 | 51.39520 | -3.34426 | 230 ft | 5 kts | 76° |
| 2026-04-29 20:44 | 51.39538 | -3.34324 | 228 ft | 16 kts | 74° |
| 2026-04-29 20:45 | 51.39589 | -3.34199 | 227 ft | 10 kts | 16° |
| 2026-04-29 20:45 | 51.39646 | -3.34290 | 229 ft | 32 kts | 296° |
| 2026-04-29 20:45 | 51.39920 | -3.35141 | 225 ft | 137 kts | 297° |
| 2026-04-29 20:45 | 51.40461 | -3.36730 | 682 ft | 178 kts | 303° |
| 2026-04-29 20:46 | 51.41034 | -3.38541 | 1499 ft | 193 kts | 306° |
| 2026-04-29 20:46 | 51.41798 | -3.40484 | 2085 ft | 224 kts | 316° |
| 2026-04-29 20:46 | 51.42943 | -3.42522 | 2414 ft | 267 kts | 321° |
| 2026-04-29 20:46 | 51.44303 | -3.44704 | 2695 ft | 286 kts | 322° |
| 2026-04-29 20:47 | 51.45751 | -3.46961 | 2954 ft | 293 kts | 321° |
| 2026-04-29 20:47 | 51.47322 | -3.49026 | 3193 ft | 288 kts | 336° |
| 2026-04-29 20:47 | 51.49120 | -3.50383 | 3452 ft | 286 kts | 345° |
| 2026-04-29 20:47 | 51.50981 | -3.51545 | 3695 ft | 287 kts | 346° |
| 2026-04-29 20:48 | 51.52853 | -3.52606 | 3839 ft | 291 kts | 349° |
| 2026-04-29 20:48 | 51.54894 | -3.53069 | 4547 ft | 300 kts | 1° |
| 2026-04-29 20:48 | 51.56988 | -3.53365 | 5369 ft | 300 kts | 1° |
| 2026-04-29 20:48 | 51.59038 | -3.53654 | 5835 ft | 294 kts | 2° |
| 2026-04-29 20:49 | 51.61079 | -3.53924 | 5977 ft | 294 kts | 1° |
| 2026-04-29 20:49 | 51.63117 | -3.54170 | 6003 ft | 293 kts | 1° |
| 2026-04-29 20:49 | 51.65148 | -3.54417 | 6006 ft | 292 kts | 1° |
| 2026-04-29 20:49 | 51.67174 | -3.54663 | 6014 ft | 292 kts | 1° |
| 2026-04-29 20:50 | 51.69199 | -3.54908 | 6003 ft | 291 kts | 1° |
| 2026-04-29 20:50 | 51.71222 | -3.55150 | 6022 ft | 292 kts | 2° |
| 2026-04-29 20:50 | 51.73243 | -3.55400 | 6015 ft | 291 kts | 1° |
| 2026-04-29 20:50 | 51.75258 | -3.55650 | 6018 ft | 291 kts | 1° |
| 2026-04-29 20:51 | 51.77255 | -3.55884 | 6025 ft | 290 kts | 1° |
| 2026-04-29 20:51 | 51.79274 | -3.56098 | 6029 ft | 292 kts | 2° |
| 2026-04-29 20:51 | 51.81301 | -3.56327 | 6025 ft | 292 kts | 1° |
| 2026-04-29 20:51 | 51.83329 | -3.56556 | 6025 ft | 292 kts | 2° |
| 2026-04-29 20:52 | 51.85361 | -3.56790 | 6048 ft | 292 kts | 1° |
| 2026-04-29 20:52 | 51.87386 | -3.57023 | 6037 ft | 292 kts | 1° |
| 2026-04-29 20:52 | 51.89415 | -3.57261 | 6035 ft | 292 kts | 1° |
| 2026-04-29 20:52 | 51.91441 | -3.57501 | 6030 ft | 292 kts | 2° |
| 2026-04-29 20:53 | 51.93469 | -3.57740 | 6048 ft | 292 kts | 1° |
| 2026-04-29 20:53 | 51.95494 | -3.57980 | 6051 ft | 292 kts | 1° |
| 2026-04-29 20:53 | 51.97514 | -3.58222 | 6047 ft | 292 kts | 1° |
| 2026-04-29 20:53 | 51.99540 | -3.58462 | 6034 ft | 291 kts | 2° |
| 2026-04-29 20:54 | 52.03566 | -3.58890 | 6033 ft | 291 kts | 2° |
| 2026-04-29 20:54 | 52.05588 | -3.59121 | 6053 ft | 292 kts | 1° |
| 2026-04-29 20:54 | 52.07615 | -3.59357 | 6053 ft | 291 kts | 4° |
| 2026-04-29 20:55 | 52.09559 | -3.58916 | 6056 ft | 277 kts | 25° |
| 2026-04-29 20:55 | 52.11330 | -3.57762 | 6052 ft | 274 kts | 31° |
| 2026-04-29 20:55 | 52.13073 | -3.56492 | 6053 ft | 275 kts | 31° |
| 2026-04-29 20:55 | 52.14816 | -3.55206 | 6063 ft | 276 kts | 32° |
| 2026-04-29 20:56 | 52.16561 | -3.53916 | 6074 ft | 274 kts | 32° |
| 2026-04-29 20:56 | 52.18297 | -3.52625 | 6080 ft | 275 kts | 32° |
| 2026-04-29 20:56 | 52.20040 | -3.51334 | 6073 ft | 275 kts | 31° |
| 2026-04-29 20:56 | 52.21783 | -3.50042 | 6077 ft | 275 kts | 32° |
| 2026-04-29 20:57 | 52.23529 | -3.48747 | 6081 ft | 275 kts | 31° |
| 2026-04-29 20:57 | 52.25266 | -3.47451 | 6078 ft | 275 kts | 32° |
| 2026-04-29 20:57 | 52.27006 | -3.46156 | 6081 ft | 275 kts | 31° |
| 2026-04-29 20:57 | 52.28741 | -3.44853 | 6088 ft | 274 kts | 31° |
| 2026-04-29 20:58 | 52.30471 | -3.43545 | 6087 ft | 274 kts | 32° |
| 2026-04-29 20:58 | 52.32206 | -3.42238 | 6085 ft | 274 kts | 32° |
| 2026-04-29 20:58 | 52.33942 | -3.40935 | 6097 ft | 276 kts | 31° |
| 2026-04-29 20:58 | 52.35679 | -3.39626 | 6094 ft | 274 kts | 32° |
| 2026-04-29 20:59 | 52.37408 | -3.38324 | 6098 ft | 274 kts | 32° |
| 2026-04-29 20:59 | 52.39139 | -3.37019 | 6101 ft | 274 kts | 32° |
| 2026-04-29 20:59 | 52.40874 | -3.35707 | 6108 ft | 274 kts | 32° |
| 2026-04-29 20:59 | 52.42606 | -3.34397 | 6104 ft | 274 kts | 32° |
| 2026-04-29 21:00 | 52.44340 | -3.33103 | 6111 ft | 276 kts | 29° |
| 2026-04-29 21:00 | 52.46223 | -3.32399 | 6117 ft | 287 kts | 11° |
| 2026-04-29 21:00 | 52.48237 | -3.32334 | 5961 ft | 290 kts | 1° |
| 2026-04-29 21:00 | 52.50244 | -3.32366 | 6094 ft | 290 kts | 359° |
| 2026-04-29 21:01 | 52.52168 | -3.33464 | 6113 ft | 300 kts | 331° |
| 2026-04-29 21:01 | 52.53689 | -3.35816 | 6123 ft | 304 kts | 307° |
| 2026-04-29 21:01 | 52.54664 | -3.38847 | 6125 ft | 305 kts | 292° |
| 2026-04-29 21:01 | 52.55439 | -3.42089 | 6108 ft | 305 kts | 290° |
| 2026-04-29 21:02 | 52.56189 | -3.45357 | 6107 ft | 305 kts | 289° |
| 2026-04-29 21:02 | 52.56950 | -3.48661 | 6110 ft | 319 kts | 289° |
| 2026-04-29 21:02 | 52.57770 | -3.52213 | 6119 ft | 344 kts | 289° |
| 2026-04-29 21:02 | 52.58633 | -3.55972 | 6117 ft | 355 kts | 290° |
| 2026-04-29 21:03 | 52.59502 | -3.59755 | 6110 ft | 360 kts | 289° |
| 2026-04-29 21:03 | 52.60392 | -3.63632 | 6089 ft | 364 kts | 289° |
| 2026-04-29 21:03 | 52.61281 | -3.67524 | 6092 ft | 363 kts | 290° |
| 2026-04-29 21:03 | 52.62510 | -3.71100 | 6085 ft | 356 kts | 310° |
| 2026-04-29 21:04 | 52.64393 | -3.73667 | 6083 ft | 352 kts | 335° |
| 2026-04-29 21:04 | 52.66678 | -3.74920 | 6091 ft | 344 kts | 358° |
| 2026-04-29 21:04 | 52.69052 | -3.75257 | 6092 ft | 341 kts | 5° |
| 2026-04-29 21:04 | 52.71418 | -3.75371 | 6091 ft | 339 kts | 4° |
| 2026-04-29 21:05 | 52.73771 | -3.75643 | 6102 ft | 343 kts | 355° |
| 2026-04-29 21:05 | 52.76089 | -3.76670 | 6095 ft | 345 kts | 345° |
| 2026-04-29 21:05 | 52.78197 | -3.78397 | 5695 ft | 336 kts | 326° |
| 2026-04-29 21:05 | 52.79812 | -3.81217 | 4876 ft | 344 kts | 305° |
| 2026-04-29 21:06 | 52.80754 | -3.84834 | 4301 ft | 344 kts | 280° |
| 2026-04-29 21:06 | 52.80775 | -3.88702 | 4113 ft | 339 kts | 255° |
| 2026-04-29 21:06 | 52.79906 | -3.92237 | 4068 ft | 328 kts | 230° |
| 2026-04-29 21:06 | 52.78339 | -3.94812 | 4078 ft | 312 kts | 205° |
| 2026-04-29 21:07 | 52.76363 | -3.96046 | 4100 ft | 299 kts | 182° |
| 2026-04-29 21:07 | 52.74361 | -3.95803 | 4063 ft | 284 kts | 158° |
| 2026-04-29 21:07 | 52.73205 | -3.94865 | 4063 ft | 277 kts | 141° |
| 2026-04-29 21:07 | 52.71644 | -3.91593 | 4068 ft | 273 kts | 118° |
| 2026-04-29 21:08 | 52.70730 | -3.88837 | 4059 ft | 273 kts | 118° |
| 2026-04-29 21:08 | 52.69851 | -3.86043 | 4181 ft | 276 kts | 111° |
| 2026-04-29 21:08 | 52.69557 | -3.82986 | 3862 ft | 267 kts | 91° |
| 2026-04-29 21:08 | 52.70141 | -3.80055 | 3389 ft | 279 kts | 63° |
| 2026-04-29 21:09 | 52.71543 | -3.77736 | 3392 ft | 302 kts | 40° |
| 2026-04-29 21:09 | 52.73587 | -3.76473 | 4280 ft | 318 kts | 21° |
| 2026-04-29 21:09 | 52.75672 | -3.75717 | 4832 ft | 292 kts | 16° |
| 2026-04-29 21:09 | 52.77617 | -3.76204 | 4633 ft | 294 kts | 332° |
| 2026-04-29 21:10 | 52.78653 | -3.79028 | 3890 ft | 298 kts | 267° |
| 2026-04-29 21:10 | 52.77826 | -3.81770 | 3783 ft | 259 kts | 201° |
| 2026-04-29 21:10 | 52.76160 | -3.82183 | 3944 ft | 244 kts | 165° |
| 2026-04-29 21:10 | 52.74660 | -3.81078 | 3113 ft | 239 kts | 131° |
| 2026-04-29 21:11 | 52.73981 | -3.78538 | 1854 ft | 252 kts | 104° |
| 2026-04-29 21:11 | 52.73253 | -3.75985 | 1481 ft | 238 kts | 117° |
| 2026-04-29 21:11 | 52.73123 | -3.73518 | 1459 ft | 216 kts | 72° |
| 2026-04-29 21:11 | 52.73159 | -3.71146 | 1191 ft | 213 kts | 123° |
| 2026-04-29 21:12 | 52.72605 | -3.69108 | 1946 ft | 196 kts | 88° |
| 2026-04-29 21:12 | 52.73284 | -3.67016 | 2828 ft | 232 kts | 48° |
| 2026-04-29 21:12 | 52.74920 | -3.66173 | 3612 ft | 271 kts | 4° |
| 2026-04-29 21:12 | 52.76824 | -3.67029 | 4297 ft | 300 kts | 345° |
| 2026-04-29 21:13 | 52.78929 | -3.67845 | 4556 ft | 321 kts | 358° |
| 2026-04-29 21:13 | 52.81160 | -3.68679 | 4962 ft | 337 kts | 342° |
| 2026-04-29 21:13 | 52.83150 | -3.70840 | 5196 ft | 349 kts | 317° |
| 2026-04-29 21:13 | 52.84176 | -3.72966 | 5358 ft | 353 kts | 301° |